< Cyclone 197315 1984 Season Cyclone 198501 >
Cyclone 198418 (JIM)
General InformationDetailed Track InformationTrack Information on Google MapsList of All Images || ResourceGoogle EarthGE AnimationAtom FeedGeoJSON
Detalied Best Track Wind (Time Zone = UTC)
Year Month Day Hour Lat. Long. Wind (kt) Gust (kt) Direc. of Major Storm Axis Radius of Major Storm Axis (nm) Radius of Minor Storm Axis (nm) Direc. of Major Gale Axis Radius of Major Gale Axis (nm) Radius of Minor Gale Axis (nm) Image
1984 3 5 21 -11.5 151.4 0 -1 symmetric - - symmetric - - Image
1984 3 6 00 -11.5 150.7 0 -1 symmetric - - symmetric - - Image
1984 3 6 06 -11.5 149.3 0 -1 symmetric - - symmetric - - Image
1984 3 6 12 -11.5 148.1 0 -1 symmetric - - symmetric - - Image
1984 3 6 18 -11.4 147.2 0 -1 symmetric - - symmetric - - Image
1984 3 7 00 -11.2 146.3 0 -1 symmetric - - symmetric - - Image
1984 3 7 06 -11.2 145.7 0 -1 symmetric - - symmetric - - Image
1984 3 7 09 -11.2 145.3 0 -1 symmetric - - symmetric - - Image
1984 3 7 12 -11.3 144.9 0 -1 symmetric - - symmetric - - Image
1984 3 7 15 -11.5 144.5 0 -1 symmetric - - symmetric - - Image
1984 3 7 18 -11.7 144.1 0 -1 symmetric - - symmetric - - Image
1984 3 7 21 -11.9 143.6 0 -1 symmetric - - symmetric - - Image
1984 3 8 00 -12.2 143.1 0 -1 symmetric - - symmetric - - Image
1984 3 8 03 -12.0 142.7 0 -1 symmetric - - symmetric - - Image
1984 3 8 06 -12.0 142.2 0 -1 symmetric - - symmetric - - Image
1984 3 8 09 -12.1 141.6 0 -1 symmetric - - symmetric - - Image
1984 3 8 12 -12.4 141.1 0 -1 symmetric - - symmetric - - Image
1984 3 8 15 -12.7 140.6 0 -1 symmetric - - symmetric - - Image
1984 3 8 18 -13.1 140.0 0 -1 symmetric - - symmetric - - Image
1984 3 8 21 -13.3 139.5 0 -1 symmetric - - symmetric - - Image
1984 3 9 00 -13.6 139.0 0 -1 symmetric - - symmetric - - Image
1984 3 9 03 -13.9 138.4 0 -1 symmetric - - symmetric - - Image
1984 3 9 06 -14.2 137.7 56 -1 symmetric - - symmetric - - Image
1984 3 9 12 -14.5 136.6 56 -1 symmetric - - symmetric - - Image
1984 3 9 18 -14.7 135.5 68 -1 symmetric - - symmetric - - Image
1984 3 9 21 -14.7 134.9 56 -1 symmetric - - symmetric - - Image
1984 3 10 00 -14.8 134.0 41 -1 symmetric - - symmetric - - Image
< Cyclone 197315 1984 Season Cyclone 198501 >

Help